createdAt,value
2019-05-18T00:00:56.283Z,12.79
2019-05-18T00:01:56.283Z,12.85
2019-05-18T00:02:56.264Z,12.74
2019-05-18T00:03:56.259Z,12.80
2019-05-18T00:04:56.250Z,12.74
2019-05-18T00:05:56.240Z,12.66
2019-05-18T00:06:56.238Z,12.69
2019-05-18T00:07:56.221Z,12.69
2019-05-18T00:08:56.208Z,12.71
2019-05-18T00:09:56.204Z,12.71
2019-05-18T00:10:56.191Z,12.79
2019-05-18T00:11:56.183Z,12.89
2019-05-18T00:12:56.173Z,12.80
2019-05-18T00:13:56.167Z,12.81
2019-05-18T00:14:56.154Z,12.85
2019-05-18T00:15:56.147Z,12.92
2019-05-18T00:16:56.141Z,12.89
2019-05-18T00:17:56.126Z,12.85
2019-05-18T00:18:56.122Z,12.84
2019-05-18T00:19:56.116Z,12.92
2019-05-18T00:20:56.098Z,12.84
2019-05-18T00:21:56.091Z,12.85
2019-05-18T00:22:56.082Z,12.79
2019-05-18T00:23:56.072Z,12.77
2019-05-18T00:24:56.064Z,12.81
2019-05-18T00:25:56.054Z,12.79
2019-05-18T00:26:56.041Z,12.74
2019-05-18T00:27:56.036Z,12.73
2019-05-18T00:28:56.023Z,12.71
2019-05-18T00:29:56.019Z,12.67
2019-05-18T00:30:56.014Z,12.67
2019-05-18T00:31:55.999Z,12.73
2019-05-18T00:32:55.992Z,12.71
2019-05-18T00:33:55.982Z,12.70
2019-05-18T00:34:55.971Z,12.71
2019-05-18T00:35:55.962Z,12.71
2019-05-18T00:36:55.950Z,12.73
2019-05-18T00:37:55.941Z,12.70
2019-05-18T00:38:55.936Z,12.62
2019-05-18T00:39:55.927Z,12.74
2019-05-18T00:40:55.914Z,12.67
2019-05-18T00:41:55.902Z,12.63
2019-05-18T00:42:55.902Z,12.63
2019-05-18T00:43:55.885Z,12.63
2019-05-18T00:44:55.876Z,12.58
2019-05-18T00:45:55.867Z,12.59
2019-05-18T00:46:55.857Z,12.52
2019-05-18T00:47:55.857Z,12.54
2019-05-18T00:48:55.839Z,12.56
2019-05-18T00:49:55.831Z,12.61
2019-05-18T00:50:55.820Z,12.59
2019-05-18T00:51:55.819Z,12.54
2019-05-18T00:52:55.805Z,12.63
2019-05-18T00:53:55.793Z,12.56
2019-05-18T00:54:55.785Z,12.55
2019-05-18T00:55:55.777Z,12.61
2019-05-18T00:56:55.765Z,12.62
2019-05-18T00:57:55.754Z,12.52
2019-05-18T00:58:55.747Z,12.55
2019-05-18T00:59:55.738Z,12.54
2019-05-18T01:00:55.730Z,12.52
2019-05-18T01:01:55.721Z,12.54
2019-05-18T01:02:55.707Z,12.58
2019-05-18T01:03:55.701Z,12.59
2019-05-18T01:04:55.693Z,12.62
2019-05-18T01:05:55.681Z,12.59
2019-05-18T01:06:55.677Z,12.59
2019-05-18T01:07:55.664Z,12.59
2019-05-18T01:08:55.653Z,12.54
2019-05-18T01:09:55.646Z,12.56
2019-05-18T01:10:55.633Z,12.58
2019-05-18T01:11:55.625Z,12.58
2019-05-18T01:12:55.617Z,12.56
2019-05-18T01:13:55.606Z,12.62
2019-05-18T01:14:55.597Z,12.56
2019-05-18T01:15:55.588Z,12.66
2019-05-18T01:16:55.620Z,12.52
2019-05-18T01:17:57.748Z,12.62
2019-05-18T01:18:55.557Z,12.59
2019-05-18T01:19:55.551Z,12.56
2019-05-18T01:20:55.537Z,12.56
2019-05-18T01:21:55.531Z,12.62
2019-05-18T01:22:55.522Z,12.52
2019-05-18T01:23:55.511Z,12.59
2019-05-18T01:24:55.506Z,12.51
2019-05-18T01:25:55.493Z,12.52
2019-05-18T01:26:55.483Z,12.56
2019-05-18T01:27:55.473Z,12.62
2019-05-18T01:28:55.466Z,12.59
2019-05-18T01:29:55.457Z,12.59
2019-05-18T01:30:55.447Z,12.54
2019-05-18T01:31:55.442Z,12.51
2019-05-18T01:32:55.427Z,12.49
2019-05-18T01:33:55.417Z,12.55
2019-05-18T01:34:55.411Z,12.63
2019-05-18T01:35:55.419Z,12.59
2019-05-18T01:36:55.389Z,12.61
2019-05-18T01:37:55.381Z,12.62
2019-05-18T01:38:55.371Z,12.61
2019-05-18T01:39:55.362Z,12.54
2019-05-18T01:40:55.352Z,12.61
2019-05-18T01:41:55.340Z,12.55
2019-05-18T01:42:55.332Z,12.59
2019-05-18T01:43:55.325Z,12.61
2019-05-18T01:44:55.315Z,12.62
2019-05-18T01:45:55.305Z,12.55
2019-05-18T01:46:55.295Z,12.54
2019-05-18T01:47:55.285Z,12.54
2019-05-18T01:48:55.280Z,12.49
2019-05-18T01:49:55.270Z,12.61
2019-05-18T01:50:55.261Z,12.55
2019-05-18T01:51:55.248Z,12.58
2019-05-18T01:52:55.240Z,12.56
2019-05-18T01:53:55.235Z,12.66
2019-05-18T01:54:55.221Z,12.67
2019-05-18T01:55:55.211Z,12.66
2019-05-18T01:56:55.203Z,12.70
2019-05-18T01:57:55.192Z,12.66
2019-05-18T01:58:55.186Z,12.67
2019-05-18T01:59:55.172Z,12.70
2019-05-18T02:00:55.163Z,12.67
2019-05-18T02:01:55.155Z,12.67
2019-05-18T02:02:55.149Z,12.71
2019-05-18T02:03:55.137Z,12.66
2019-05-18T02:04:55.130Z,12.70
2019-05-18T02:05:55.117Z,12.71
2019-05-18T02:06:55.107Z,12.62
2019-05-18T02:07:55.104Z,12.66
2019-05-18T02:08:55.087Z,12.66
2019-05-18T02:09:55.078Z,12.61
2019-05-18T02:10:55.103Z,12.73
2019-05-18T02:11:55.063Z,12.76
2019-05-18T02:12:55.053Z,12.63
2019-05-18T02:13:55.045Z,12.67
2019-05-18T02:14:55.032Z,12.62
2019-05-18T02:15:55.027Z,12.59
2019-05-18T02:16:55.017Z,12.61
2019-05-18T02:17:55.086Z,12.62
2019-05-18T02:18:54.996Z,12.62
2019-05-18T02:19:54.988Z,12.66
2019-05-18T02:20:54.975Z,12.56
2019-05-18T02:21:54.969Z,12.52
2019-05-18T02:22:54.959Z,12.48
2019-05-18T02:23:54.948Z,12.52
2019-05-18T02:24:54.941Z,12.56
2019-05-18T02:25:54.935Z,12.54
2019-05-18T02:26:54.921Z,12.54
2019-05-18T02:27:54.916Z,12.46
2019-05-18T02:28:54.908Z,12.54
2019-05-18T02:29:54.897Z,12.52
2019-05-18T02:30:54.883Z,12.56
2019-05-18T02:31:54.876Z,12.49
2019-05-18T02:32:54.868Z,12.56
2019-05-18T02:33:54.856Z,12.54
2019-05-18T02:34:54.848Z,12.58
2019-05-18T02:35:54.843Z,12.55
2019-05-18T02:36:54.829Z,12.54
2019-05-18T02:37:54.819Z,12.49
2019-05-18T02:38:54.806Z,12.49
2019-05-18T02:39:54.801Z,12.54
2019-05-18T02:40:54.789Z,12.52
2019-05-18T02:41:54.784Z,12.51
2019-05-18T02:42:54.770Z,12.41
2019-05-18T02:43:54.761Z,12.41
2019-05-18T02:44:54.748Z,12.41
2019-05-18T02:45:54.744Z,12.40
2019-05-18T02:46:54.734Z,12.37
2019-05-18T02:47:54.723Z,12.37
2019-05-18T02:48:54.714Z,12.38
2019-05-18T02:49:54.707Z,12.37
2019-05-18T02:50:54.694Z,12.40
2019-05-18T02:51:54.686Z,12.41
2019-05-18T02:52:54.678Z,12.31
2019-05-18T02:53:54.667Z,12.44
2019-05-18T02:54:54.668Z,12.40
2019-05-18T02:55:54.650Z,12.31
2019-05-18T02:56:54.640Z,12.33
2019-05-18T02:57:54.652Z,12.41
2019-05-18T02:58:54.618Z,12.40
2019-05-18T02:59:54.611Z,12.37
2019-05-18T03:00:54.600Z,12.37
2019-05-18T03:01:54.592Z,12.41
2019-05-18T03:02:54.582Z,12.46
2019-05-18T03:03:54.581Z,12.52
2019-05-18T03:04:54.563Z,12.38
2019-05-18T03:05:54.552Z,12.38
2019-05-18T03:06:54.543Z,12.40
2019-05-18T03:07:54.537Z,12.40
2019-05-18T03:08:54.529Z,12.38
2019-05-18T03:09:54.517Z,12.43
2019-05-18T03:10:54.506Z,12.41
2019-05-18T03:11:54.497Z,12.31
2019-05-18T03:12:54.491Z,12.31
2019-05-18T03:13:54.481Z,12.31
2019-05-18T03:14:54.469Z,12.33
2019-05-18T03:15:54.457Z,12.26
2019-05-18T03:16:54.467Z,12.40
2019-05-18T03:17:54.441Z,12.33
2019-05-18T03:19:07.330Z,12.34
2019-05-18T03:19:54.502Z,12.33
2019-05-18T03:20:54.415Z,12.33
2019-05-18T03:21:54.404Z,12.30
2019-05-18T03:22:54.399Z,12.25
2019-05-18T03:23:54.385Z,12.31
2019-05-18T03:24:54.373Z,12.21
2019-05-18T03:25:54.367Z,12.29
2019-05-18T03:26:54.354Z,12.22
2019-05-18T03:27:54.347Z,12.21
2019-05-18T03:28:54.335Z,12.22
2019-05-18T03:29:54.328Z,12.25
2019-05-18T03:30:54.328Z,12.25
2019-05-18T03:31:54.310Z,12.22
2019-05-18T03:32:54.304Z,12.21
2019-05-18T03:33:54.292Z,12.25
2019-05-18T03:34:54.279Z,12.21
2019-05-18T03:35:54.269Z,12.16
2019-05-18T03:36:54.271Z,12.18
2019-05-18T03:37:54.250Z,12.04
2019-05-18T03:38:54.240Z,12.11
2019-05-18T03:39:54.232Z,12.13
2019-05-18T03:40:54.221Z,12.13
2019-05-18T03:41:54.211Z,12.12
2019-05-18T03:42:54.200Z,12.07
2019-05-18T03:43:54.197Z,12.25
2019-05-18T03:44:54.184Z,12.19
2019-05-18T03:45:54.187Z,12.19
2019-05-18T03:46:54.173Z,12.16
2019-05-18T03:47:54.158Z,12.21
2019-05-18T03:48:54.144Z,12.25
2019-05-18T03:49:54.135Z,12.12
2019-05-18T03:50:54.126Z,12.08
2019-05-18T03:51:54.115Z,12.18
2019-05-18T03:52:54.107Z,12.21
2019-05-18T03:53:54.103Z,12.23
2019-05-18T03:54:54.092Z,12.05
2019-05-18T03:55:54.079Z,12.13
2019-05-18T03:56:54.073Z,12.16
2019-05-18T03:57:54.057Z,12.12
2019-05-18T03:58:54.052Z,12.11
2019-05-18T03:59:54.036Z,12.07
2019-05-18T04:00:54.031Z,12.13
2019-05-18T04:01:54.021Z,12.08
2019-05-18T04:02:54.008Z,12.19
2019-05-18T04:03:54.000Z,12.16
2019-05-18T04:04:53.991Z,12.30
2019-05-18T04:05:53.981Z,12.37
2019-05-18T04:06:53.972Z,12.25
2019-05-18T04:07:53.966Z,12.33
2019-05-18T04:08:53.952Z,12.29
2019-05-18T04:09:53.943Z,12.34
2019-05-18T04:10:53.960Z,12.26
2019-05-18T04:11:53.923Z,12.38
2019-05-18T04:12:53.917Z,12.31
2019-05-18T04:13:53.904Z,12.31
2019-05-18T04:14:53.900Z,12.30
2019-05-18T04:15:53.888Z,12.48
2019-05-18T04:16:53.875Z,12.49
2019-05-18T04:17:53.874Z,12.58
2019-05-18T04:18:53.860Z,12.62
2019-05-18T04:19:53.850Z,12.61
2019-05-18T04:20:53.837Z,12.66
2019-05-18T04:21:53.831Z,12.61
2019-05-18T04:22:53.821Z,12.61
2019-05-18T04:23:53.810Z,12.59
2019-05-18T04:24:53.802Z,12.61
2019-05-18T04:25:53.794Z,12.63
2019-05-18T04:26:53.785Z,12.62
2019-05-18T04:27:53.774Z,12.59
2019-05-18T04:28:53.760Z,12.62
2019-05-18T04:29:53.757Z,12.63
2019-05-18T04:30:53.745Z,12.62
2019-05-18T04:31:53.734Z,12.58
2019-05-18T04:32:53.729Z,12.58
2019-05-18T04:33:53.718Z,12.55
2019-05-18T04:34:53.706Z,12.49
2019-05-18T04:35:53.696Z,12.51
2019-05-18T04:36:53.686Z,12.58
2019-05-18T04:37:53.679Z,12.59
2019-05-18T04:38:53.669Z,12.63
2019-05-18T04:39:53.660Z,12.66
2019-05-18T04:40:53.651Z,12.70
2019-05-18T04:41:53.641Z,12.74
2019-05-18T04:42:53.635Z,12.74
2019-05-18T04:43:53.625Z,12.79
2019-05-18T04:44:53.612Z,12.76
2019-05-18T04:45:53.606Z,12.89
2019-05-18T04:46:53.596Z,12.92
2019-05-18T04:47:53.590Z,12.94
2019-05-18T04:48:53.578Z,12.94
2019-05-18T04:50:04.349Z,12.99
2019-05-18T04:50:53.558Z,12.94
2019-05-18T04:51:53.550Z,13.01
2019-05-18T04:52:53.540Z,13.06
2019-05-18T04:53:53.530Z,13.07
2019-05-18T04:54:53.522Z,13.12
2019-05-18T04:55:53.515Z,13.12
2019-05-18T04:56:53.503Z,13.07
2019-05-18T04:57:53.494Z,13.07
2019-05-18T04:58:53.486Z,13.13
2019-05-18T04:59:53.476Z,13.14
2019-05-18T05:00:53.466Z,13.17
2019-05-18T05:01:53.475Z,13.14
2019-05-18T05:02:53.451Z,13.19
2019-05-18T05:03:53.452Z,13.19
2019-05-18T05:04:56.574Z,13.24
2019-05-18T05:05:53.422Z,13.19
2019-05-18T05:06:53.411Z,13.19
2019-05-18T05:07:53.403Z,13.19
2019-05-18T05:08:53.398Z,13.27
2019-05-18T05:09:53.386Z,13.31
2019-05-18T05:10:53.376Z,13.27
2019-05-18T05:11:53.367Z,13.35
2019-05-18T05:12:53.360Z,13.39
2019-05-18T05:13:53.349Z,13.31
2019-05-18T05:14:53.341Z,13.43
2019-05-18T05:15:53.339Z,13.47
2019-05-18T05:16:53.322Z,13.62
2019-05-18T05:17:53.313Z,13.71
2019-05-18T05:18:53.307Z,13.62
2019-05-18T05:19:53.296Z,13.71
2019-05-18T05:20:53.284Z,13.83
2019-05-18T05:21:53.277Z,13.86
2019-05-18T05:22:53.274Z,14.04
2019-05-18T05:23:53.261Z,14.31
2019-05-18T05:24:53.253Z,14.67
2019-05-18T05:25:53.241Z,14.78
2019-05-18T05:26:53.236Z,14.90
2019-05-18T05:27:53.231Z,15.12
2019-05-18T05:28:53.215Z,15.27
2019-05-18T05:29:53.211Z,15.25
2019-05-18T05:30:53.201Z,15.23
2019-05-18T05:31:53.198Z,15.25
2019-05-18T05:32:53.183Z,15.37
2019-05-18T05:33:53.180Z,15.33
2019-05-18T05:34:53.167Z,15.22
2019-05-18T05:35:53.158Z,15.37
2019-05-18T05:36:53.150Z,15.49
2019-05-18T05:37:53.147Z,15.60
2019-05-18T05:38:53.135Z,15.70
2019-05-18T05:39:53.130Z,15.78
2019-05-18T05:40:53.118Z,15.92
2019-05-18T05:41:53.111Z,15.99
2019-05-18T05:42:53.106Z,15.96
2019-05-18T05:43:53.099Z,16.08
2019-05-18T05:44:53.088Z,15.93
2019-05-18T05:45:53.085Z,15.99
2019-05-18T05:46:53.077Z,15.98
2019-05-18T05:47:53.069Z,15.95
2019-05-18T05:48:53.060Z,16.06
2019-05-18T05:49:53.054Z,16.08
2019-05-18T05:50:53.043Z,16.10
2019-05-18T05:51:53.037Z,15.96
2019-05-18T05:52:53.030Z,16.04
2019-05-18T05:53:53.030Z,16.16
2019-05-18T05:54:53.019Z,16.18
2019-05-18T05:55:53.010Z,16.29
2019-05-18T05:56:52.998Z,16.17
2019-05-18T05:57:53.000Z,16.32
2019-05-18T05:58:53.028Z,16.27
2019-05-18T05:59:52.983Z,16.26
2019-05-18T06:00:52.970Z,16.40
2019-05-18T06:01:52.965Z,16.27
2019-05-18T06:02:52.961Z,16.25
2019-05-18T06:03:52.950Z,16.22
2019-05-18T06:04:52.944Z,16.33
2019-05-18T06:05:52.936Z,16.34
2019-05-18T06:06:52.929Z,16.26
2019-05-18T06:07:52.927Z,16.14
2019-05-18T06:08:52.917Z,16.26
2019-05-18T06:09:52.906Z,16.29
2019-05-18T06:10:52.901Z,16.26
2019-05-18T06:11:52.893Z,16.17
2019-05-18T06:12:52.885Z,16.23
2019-05-18T06:13:52.878Z,16.26
2019-05-18T06:14:52.877Z,16.26
2019-05-18T06:15:52.868Z,16.22
2019-05-18T06:16:52.856Z,16.30
2019-05-18T06:17:52.850Z,16.40
2019-05-18T06:18:52.844Z,16.34
2019-05-18T06:19:52.838Z,16.33
2019-05-18T06:20:52.827Z,16.37
2019-05-18T06:21:52.822Z,16.41
2019-05-18T06:22:52.817Z,16.45
2019-05-18T06:23:52.814Z,16.37
2019-05-18T06:24:52.802Z,16.45
2019-05-18T06:25:52.798Z,16.48
2019-05-18T06:26:52.786Z,16.47
2019-05-18T06:27:52.779Z,16.42
2019-05-18T06:28:52.774Z,16.45
2019-05-18T06:29:52.811Z,16.41
2019-05-18T06:30:52.771Z,16.25
2019-05-18T06:31:52.754Z,16.16
2019-05-18T06:32:52.748Z,15.85
2019-05-18T06:33:52.738Z,15.62
2019-05-18T06:34:52.731Z,15.59
2019-05-18T06:35:52.723Z,15.35
2019-05-18T06:36:55.839Z,15.37
2019-05-18T06:37:52.706Z,15.37
2019-05-18T06:38:52.701Z,15.48
2019-05-18T06:39:52.693Z,15.62
2019-05-18T06:40:52.712Z,15.70
2019-05-18T06:41:52.680Z,15.76
2019-05-18T06:42:52.674Z,15.76
2019-05-18T06:43:52.666Z,15.92
2019-05-18T06:44:52.658Z,15.98
2019-05-18T06:45:52.652Z,15.96
2019-05-18T06:46:52.645Z,16.10
2019-05-18T06:47:52.635Z,16.11
2019-05-18T06:48:52.626Z,16.32
2019-05-18T06:49:52.624Z,16.36
2019-05-18T06:51:06.297Z,16.52
2019-05-18T06:51:52.608Z,16.62
2019-05-18T06:52:52.598Z,16.69
2019-05-18T06:53:52.593Z,16.90
2019-05-18T06:54:52.588Z,17.06
2019-05-18T06:55:52.580Z,17.07
2019-05-18T06:56:52.573Z,17.18
2019-05-18T06:57:52.566Z,16.98
2019-05-18T06:58:52.559Z,16.99
2019-05-18T06:59:52.555Z,17.05
2019-05-18T07:00:52.577Z,16.87
2019-05-18T07:01:52.538Z,16.51
2019-05-18T07:02:52.538Z,16.14
2019-05-18T07:03:52.527Z,15.93
2019-05-18T07:04:52.519Z,15.86
2019-05-18T07:05:52.516Z,15.64
2019-05-18T07:06:52.502Z,15.58
2019-05-18T07:07:52.499Z,15.37
2019-05-18T07:08:52.490Z,15.16
2019-05-18T07:09:52.484Z,15.28
2019-05-18T07:10:52.474Z,15.19
2019-05-18T07:11:52.469Z,15.43
2019-05-18T07:12:52.466Z,15.43
2019-05-18T07:13:52.472Z,15.56
2019-05-18T07:14:52.453Z,15.74
2019-05-18T07:15:52.445Z,15.99
2019-05-18T07:16:52.456Z,16.25
2019-05-18T07:17:52.427Z,16.47
2019-05-18T07:18:52.417Z,16.54
2019-05-18T07:19:52.412Z,16.82
2019-05-18T07:20:52.403Z,17.07
2019-05-18T07:21:52.396Z,17.27
2019-05-18T07:22:52.397Z,17.45
2019-05-18T07:23:52.385Z,17.57
2019-05-18T07:24:52.376Z,17.68
2019-05-18T07:25:52.372Z,17.70
2019-05-18T07:26:52.363Z,17.81
2019-05-18T07:27:52.358Z,17.89
2019-05-18T07:28:52.360Z,17.95
2019-05-18T07:29:52.350Z,18.01
2019-05-18T07:30:52.335Z,18.05
2019-05-18T07:31:52.332Z,18.20
2019-05-18T07:32:52.322Z,18.16
2019-05-18T07:33:52.318Z,18.17
2019-05-18T07:34:52.333Z,17.99
2019-05-18T07:35:52.304Z,17.91
2019-05-18T07:36:52.297Z,17.73
2019-05-18T07:37:52.292Z,17.79
2019-05-18T07:38:52.284Z,17.87
2019-05-18T07:39:52.281Z,17.74
2019-05-18T07:40:52.273Z,17.79
2019-05-18T07:41:52.270Z,17.68
2019-05-18T07:42:52.260Z,17.79
2019-05-18T07:43:52.255Z,17.80
2019-05-18T07:44:52.248Z,17.77
2019-05-18T07:45:52.242Z,17.57
2019-05-18T07:46:52.236Z,17.35
2019-05-18T07:47:52.232Z,17.25
2019-05-18T07:48:52.230Z,17.32
2019-05-18T07:49:52.219Z,17.30
2019-05-18T07:50:52.212Z,17.40
2019-05-18T07:51:52.206Z,17.45
2019-05-18T07:52:52.199Z,17.55
2019-05-18T07:53:52.193Z,17.54
2019-05-18T07:54:52.188Z,17.63
2019-05-18T07:55:52.182Z,17.65
2019-05-18T07:56:52.178Z,17.54
2019-05-18T07:57:52.222Z,17.60
2019-05-18T07:58:52.164Z,17.65
2019-05-18T07:59:52.158Z,17.80
2019-05-18T08:00:52.152Z,17.76
2019-05-18T08:01:52.144Z,17.68
2019-05-18T08:02:52.138Z,17.73
2019-05-18T08:03:52.138Z,17.63
2019-05-18T08:04:52.126Z,17.63
2019-05-18T08:05:52.119Z,17.36
2019-05-18T08:06:52.113Z,17.27
2019-05-18T08:07:52.117Z,17.21
2019-05-18T08:08:52.105Z,16.92
2019-05-18T08:09:52.142Z,16.95
2019-05-18T08:10:52.089Z,16.91
2019-05-18T08:11:52.081Z,17.05
2019-05-18T08:12:52.119Z,16.87
2019-05-18T08:13:52.069Z,16.91
2019-05-18T08:14:52.066Z,17.10
2019-05-18T08:15:52.062Z,17.32
2019-05-18T08:16:52.053Z,17.53
2019-05-18T08:17:52.048Z,17.43
2019-05-18T08:18:52.042Z,17.58
2019-05-18T08:19:52.037Z,17.74
2019-05-18T08:20:52.026Z,17.94
2019-05-18T08:21:53.504Z,18.07
2019-05-18T08:22:52.017Z,18.13
2019-05-18T08:23:52.008Z,18.28
2019-05-18T08:24:52.005Z,18.34
2019-05-18T08:25:51.998Z,18.36
2019-05-18T08:26:51.994Z,18.36
2019-05-18T08:27:51.988Z,18.39
2019-05-18T08:28:51.981Z,18.46
2019-05-18T08:29:51.982Z,18.41
2019-05-18T08:30:51.971Z,18.54
2019-05-18T08:31:51.974Z,18.62
2019-05-18T08:32:51.957Z,18.82
2019-05-18T08:33:51.951Z,18.79
2019-05-18T08:34:51.945Z,18.82
2019-05-18T08:35:51.941Z,18.79
2019-05-18T08:36:51.934Z,18.96
2019-05-18T08:37:51.929Z,18.97
2019-05-18T08:38:51.928Z,19.09
2019-05-18T08:39:51.919Z,19.15
2019-05-18T08:40:51.911Z,19.17
2019-05-18T08:41:51.909Z,19.17
2019-05-18T08:42:51.902Z,19.25
2019-05-18T08:43:51.897Z,19.31
2019-05-18T08:44:51.891Z,19.28
2019-05-18T08:45:51.886Z,19.16
2019-05-18T08:46:51.879Z,19.13
2019-05-18T08:47:51.876Z,19.15
2019-05-18T08:48:51.878Z,19.12
2019-05-18T08:49:51.867Z,19.06
2019-05-18T08:50:51.858Z,19.07
2019-05-18T08:51:51.854Z,19.05
2019-05-18T08:52:51.846Z,19.07
2019-05-18T08:53:51.853Z,18.97
2019-05-18T08:54:51.838Z,19.06
2019-05-18T08:55:51.838Z,19.07
2019-05-18T08:56:51.830Z,19.06
2019-05-18T08:57:51.823Z,19.20
2019-05-18T08:58:51.820Z,19.38
2019-05-18T08:59:51.812Z,19.34
2019-05-18T09:00:51.808Z,19.47
2019-05-18T09:01:51.801Z,19.53
2019-05-18T09:02:51.798Z,19.45
2019-05-18T09:03:51.794Z,19.47
2019-05-18T09:04:51.788Z,19.45
2019-05-18T09:05:51.783Z,19.49
2019-05-18T09:06:51.777Z,19.38
2019-05-18T09:07:51.773Z,19.52
2019-05-18T09:08:51.773Z,19.43
2019-05-18T09:09:51.762Z,19.39
2019-05-18T09:10:51.755Z,19.35
2019-05-18T09:11:51.752Z,19.38
2019-05-18T09:12:51.748Z,19.30
2019-05-18T09:13:51.743Z,19.34
2019-05-18T09:14:51.738Z,19.34
2019-05-18T09:15:51.732Z,19.23
2019-05-18T09:16:51.727Z,19.32
2019-05-18T09:17:51.720Z,19.24
2019-05-18T09:18:51.716Z,19.09
2019-05-18T09:19:51.711Z,19.17
2019-05-18T09:20:51.705Z,19.06
2019-05-18T09:21:51.702Z,19.21
2019-05-18T09:22:51.698Z,19.17
2019-05-18T09:23:51.694Z,19.09
2019-05-18T09:24:51.685Z,19.06
2019-05-18T09:25:51.682Z,19.17
2019-05-18T09:26:51.678Z,19.32
2019-05-18T09:27:51.670Z,19.28
2019-05-18T09:28:51.668Z,19.50
2019-05-18T09:29:51.662Z,19.49
2019-05-18T09:30:51.657Z,19.64
2019-05-18T09:31:51.660Z,19.79
2019-05-18T09:32:51.650Z,19.82
2019-05-18T09:33:51.648Z,19.87
2019-05-18T09:34:51.637Z,19.89
2019-05-18T09:35:51.634Z,19.85
2019-05-18T09:36:51.632Z,19.83
2019-05-18T09:37:51.627Z,19.92
2019-05-18T09:38:51.620Z,19.95
2019-05-18T09:39:51.618Z,20.05
2019-05-18T09:40:51.607Z,20.12
2019-05-18T09:41:51.609Z,20.26
2019-05-18T09:42:51.602Z,20.37
2019-05-18T09:43:51.595Z,20.22
2019-05-18T09:44:51.597Z,19.95
2019-05-18T09:45:51.586Z,19.87
2019-05-18T09:46:51.584Z,19.92
2019-05-18T09:47:51.581Z,20.00
2019-05-18T09:48:51.573Z,19.83
2019-05-18T09:49:51.569Z,19.89
2019-05-18T09:50:51.567Z,19.92
2019-05-18T09:51:51.559Z,19.79
2019-05-18T09:52:51.556Z,19.76
2019-05-18T09:53:52.079Z,19.72
2019-05-18T09:54:51.552Z,19.82
2019-05-18T09:55:51.541Z,19.75
2019-05-18T09:56:51.536Z,19.72
2019-05-18T09:57:51.534Z,19.76
2019-05-18T09:58:51.532Z,19.78
2019-05-18T09:59:51.528Z,19.98
2019-05-18T10:00:51.521Z,19.89
2019-05-18T10:01:51.518Z,19.94
2019-05-18T10:02:51.513Z,19.90
2019-05-18T10:03:51.509Z,20.01
2019-05-18T10:04:51.538Z,19.90
2019-05-18T10:05:51.496Z,19.87
2019-05-18T10:06:51.493Z,19.82
2019-05-18T10:07:51.491Z,19.92
2019-05-18T10:08:51.482Z,19.85
2019-05-18T10:09:51.475Z,19.85
2019-05-18T10:10:51.474Z,19.90
2019-05-18T10:11:51.472Z,19.64
2019-05-18T10:12:51.463Z,19.72
2019-05-18T10:13:51.517Z,19.78
2019-05-18T10:14:51.456Z,19.80
2019-05-18T10:15:51.456Z,19.79
2019-05-18T10:16:51.452Z,19.86
2019-05-18T10:17:51.442Z,19.98
2019-05-18T10:18:51.440Z,19.92
2019-05-18T10:19:51.432Z,19.90
2019-05-18T10:20:51.427Z,19.92
2019-05-18T10:21:51.423Z,20.10
2019-05-18T10:23:04.066Z,20.15
2019-05-18T10:23:51.416Z,20.12
2019-05-18T10:24:51.411Z,20.10
2019-05-18T10:25:51.409Z,20.16
2019-05-18T10:26:51.407Z,20.19
2019-05-18T10:27:51.399Z,20.22
2019-05-18T10:28:51.393Z,20.17
2019-05-18T10:29:51.390Z,20.20
2019-05-18T10:30:51.386Z,20.16
2019-05-18T10:31:51.390Z,20.30
2019-05-18T10:32:51.377Z,20.31
2019-05-18T10:33:51.373Z,20.35
2019-05-18T10:34:51.371Z,20.53
2019-05-18T10:35:51.364Z,20.51
2019-05-18T10:36:51.359Z,20.51
2019-05-18T10:37:51.356Z,20.57
2019-05-18T10:38:51.350Z,20.60
2019-05-18T10:39:51.350Z,20.75
2019-05-18T10:40:51.343Z,20.78
2019-05-18T10:41:51.335Z,20.88
2019-05-18T10:42:51.333Z,20.94
2019-05-18T10:43:51.331Z,20.98
2019-05-18T10:44:51.323Z,20.97
2019-05-18T10:45:51.321Z,21.13
2019-05-18T10:46:51.317Z,21.18
2019-05-18T10:47:51.319Z,21.13
2019-05-18T10:48:51.307Z,21.09
2019-05-18T10:49:51.305Z,21.03
2019-05-18T10:50:51.301Z,20.88
2019-05-18T10:51:51.297Z,20.90
2019-05-18T10:52:51.292Z,20.75
2019-05-18T10:53:51.287Z,20.78
2019-05-18T10:54:51.284Z,20.76
2019-05-18T10:55:51.281Z,20.60
2019-05-18T10:56:51.277Z,20.68
2019-05-18T10:57:51.273Z,20.68
2019-05-18T10:58:51.269Z,20.61
2019-05-18T10:59:51.265Z,20.57
2019-05-18T11:00:51.261Z,20.48
2019-05-18T11:01:51.258Z,20.53
2019-05-18T11:02:51.258Z,20.46
2019-05-18T11:03:51.249Z,20.60
2019-05-18T11:04:51.245Z,20.57
2019-05-18T11:05:51.243Z,20.46
2019-05-18T11:06:51.235Z,20.44
2019-05-18T11:07:51.234Z,20.46
2019-05-18T11:08:51.229Z,20.38
2019-05-18T11:09:51.222Z,20.46
2019-05-18T11:10:51.221Z,20.51
2019-05-18T11:11:51.215Z,20.53
2019-05-18T11:12:51.212Z,20.64
2019-05-18T11:13:51.207Z,20.66
2019-05-18T11:14:51.203Z,20.48
2019-05-18T11:15:51.202Z,20.56
2019-05-18T11:16:51.193Z,20.50
2019-05-18T11:17:51.195Z,20.41
2019-05-18T11:18:51.190Z,20.42
2019-05-18T11:19:51.184Z,20.51
2019-05-18T11:20:51.178Z,20.51
2019-05-18T11:21:51.174Z,20.34
2019-05-18T11:22:51.176Z,20.38
2019-05-18T11:23:51.166Z,20.46
2019-05-18T11:24:51.161Z,20.51
2019-05-18T11:25:51.165Z,20.64
2019-05-18T11:26:51.155Z,20.71
2019-05-18T11:27:51.149Z,20.90
2019-05-18T11:28:51.163Z,20.90
2019-05-18T11:29:51.143Z,20.97
2019-05-18T11:30:51.137Z,21.06
2019-05-18T11:31:51.135Z,20.97
2019-05-18T11:32:51.137Z,20.91
2019-05-18T11:33:51.126Z,20.96
2019-05-18T11:34:51.131Z,20.91
2019-05-18T11:35:51.122Z,20.96
2019-05-18T11:36:51.118Z,21.01
2019-05-18T11:37:51.111Z,21.00
2019-05-18T11:38:51.109Z,21.12
2019-05-18T11:39:51.138Z,21.15
2019-05-18T11:40:51.098Z,21.30
2019-05-18T11:41:51.097Z,21.43
2019-05-18T11:42:51.089Z,21.45
2019-05-18T11:43:51.086Z,21.34
2019-05-18T11:44:51.083Z,21.30
2019-05-18T11:45:51.078Z,21.24
2019-05-18T11:46:51.077Z,21.26
2019-05-18T11:47:51.069Z,21.31
2019-05-18T11:48:51.067Z,21.28
2019-05-18T11:49:51.269Z,21.28
2019-05-18T11:50:51.062Z,21.36
2019-05-18T11:51:51.057Z,21.38
2019-05-18T11:52:51.054Z,21.37
2019-05-18T11:53:58.211Z,21.42
2019-05-18T11:54:51.046Z,21.37
2019-05-18T11:55:51.043Z,21.31
2019-05-18T11:56:51.067Z,21.36
2019-05-18T11:57:51.033Z,21.34
2019-05-18T11:58:51.027Z,21.33
2019-05-18T11:59:51.025Z,21.43
2019-05-18T12:00:51.025Z,21.46
2019-05-18T12:01:51.018Z,21.51
2019-05-18T12:02:51.014Z,21.48
2019-05-18T12:03:51.010Z,21.40
2019-05-18T12:04:51.005Z,21.36
2019-05-18T12:05:51.005Z,21.30
2019-05-18T12:06:51.007Z,21.19
2019-05-18T12:07:50.996Z,21.19
2019-05-18T12:08:51.006Z,21.18
2019-05-18T12:09:50.991Z,21.22
2019-05-18T12:10:52.292Z,21.28
2019-05-18T12:11:50.994Z,21.16
2019-05-18T12:12:50.978Z,21.19
2019-05-18T12:13:50.974Z,21.18
2019-05-18T12:14:50.971Z,21.27
2019-05-18T12:15:50.969Z,21.28
2019-05-18T12:16:50.966Z,21.18
2019-05-18T12:17:50.959Z,21.27
2019-05-18T12:18:50.956Z,21.33
2019-05-18T12:19:50.954Z,21.36
2019-05-18T12:20:50.945Z,21.45
2019-05-18T12:21:50.944Z,21.45
2019-05-18T12:22:50.955Z,21.46
2019-05-18T12:23:50.945Z,21.55
2019-05-18T12:24:50.932Z,21.63
2019-05-18T12:25:50.979Z,21.66
2019-05-18T12:26:50.934Z,21.79
2019-05-18T12:27:50.926Z,21.83
2019-05-18T12:28:50.916Z,21.86
2019-05-18T12:29:50.917Z,21.85
2019-05-18T12:30:50.913Z,21.85
2019-05-18T12:31:50.906Z,21.98
2019-05-18T12:32:50.902Z,21.96
2019-05-18T12:33:50.927Z,21.96
2019-05-18T12:34:50.894Z,21.99
2019-05-18T12:35:50.894Z,21.96
2019-05-18T12:36:50.887Z,21.93
2019-05-18T12:37:50.885Z,21.90
2019-05-18T12:38:50.881Z,21.96
2019-05-18T12:39:50.878Z,21.83
2019-05-18T12:40:50.873Z,21.73
2019-05-18T12:41:50.871Z,21.77
2019-05-18T12:42:50.868Z,21.75
2019-05-18T12:43:50.882Z,21.79
2019-05-18T12:44:50.865Z,21.81
2019-05-18T12:45:50.858Z,21.74
2019-05-18T12:46:50.927Z,21.73
2019-05-18T12:47:50.850Z,21.74
2019-05-18T12:48:50.860Z,21.74
2019-05-18T12:49:50.844Z,21.81
2019-05-18T12:50:50.842Z,21.73
2019-05-18T12:51:50.838Z,21.64
2019-05-18T12:52:50.833Z,21.68